Impacts METAR Board
IDs:

KMCO - Orlando Intl, FL, US

Updated at: 0700 UTC 24 Sep 2018
Potential Impact None Slight Moderate High
Time 23/19Z 23/20Z 23/21Z 23/22Z 23/23Z 24/00Z 24/01Z 24/02Z 24/03Z 24/04Z 24/05Z 24/06Z 24/07Z
Temp87 87 87 86 83 81 79 78 77 77 76 75 76
Dewpt75 73 73 72 70 72 73 73 73 73 73 73 73
Altim29.98 29.96 29.95 29.96 29.97 29.98 30.00 30.02 30.03 30.03 30.03 30.02 30.00
VIS10 10 10 10 10 10 10 10 10 10 10 10 10
CIG300 300 300 300 300 250 -- -- -- -- -- -- --
CoverBKNBKNBKNBKNBKNBKNFEWFEWFEWFEWFEWFEWFEW
FltCatVFRVFRVFRVFRVFRVFRVFRVFRVFRVFRVFRVFRVFR
WX--------------------------
WDir120120100901008080806090702070
WSpd9 10 9 9 10 9 7 4 4 3 3 3 4
WGst-- -- -- -- -- -- -- -- -- -- -- -- --
Raw hourly METARs
KMCO 231853Z 12009KT 10SM FEW050 FEW100 SCT250 BKN300 31/24 A2998 RMK AO2 SLP150 CB DSNT S-SW T03060239
KMCO 231953Z 12010KT 10SM FEW036 SCT150 BKN300 31/23 A2996 RMK AO2 SLP145 T03060228
KMCO 232053Z 10009KT 10SM FEW037 FEW150 BKN300 31/23 A2995 RMK AO2 SLP141 T03060228 56020
KMCO 232153Z 09009KT 10SM FEW040 FEW150 BKN300 30/22 A2996 RMK AO2 SLP144 T03000222
KMCO 232253Z 10010KT 10SM FEW040 FEW150 BKN300 28/21 A2997 RMK AO2 SLP147 T02830211
KMCO 232353Z 08009KT 10SM FEW040 FEW150 BKN250 27/22 A2998 RMK AO2 SLP151 CB DSNT NW T02720222 10311 20272 53010
KMCO 240053Z 08007KT 10SM FEW250 26/23 A3000 RMK AO2 SLP159 T02610228
KMCO 240153Z 08004KT 10SM FEW150 FEW250 26/23 A3002 RMK AO2 SLP163 T02560228
KMCO 240253Z 06004KT 10SM FEW250 25/23 A3003 RMK AO2 SLP168 T02500228 51017
KMCO 240353Z 09003KT 10SM FEW250 25/23 A3003 RMK AO2 SLP167 T02500228
KMCO 240453Z 07003KT 10SM FEW250 24/23 A3003 RMK AO2 SLP166 T02440228 403110239
KMCO 240553Z 02003KT 10SM FEW250 24/23 A3002 RMK AO2 SLP164 T02390228 10272 20239 58004
KMCO 240653Z 07004KT 10SM FEW250 24/23 A3000 RMK AO2 SLP157 T02440228



Page loaded:  07:59 UTC  |   12:59 AM Pacific  |   01:59 AM Mountain  |   02:59 AM Central  |   03:59 AM Eastern

 

ADVISORIES

FORECASTS

FORECASTS

OBSERVATIONS

USER TOOLS

ABOUT US